Time;durP1;ratioP1;P1;durP2;ratioP2;P2;SDS_P1;SDS_P2;PMS_P1;PMS_P2;Temp;Humidity;BMP_temperature;BMP_pressure;BME280_temperature;BME280_humidity;BME280_pressure;Samples;Min_cycle;Max_cycle;Signal;HPM_P1;HPM_P2
2022/03/19 00:00:53;;;;;;;;;421.75;379.00;8.70;39.20;;;;;;4976522;28;8822;-68
2022/03/19 00:03:20;;;;;;;;;325.00;294.50;8.40;39.70;;;;;;4976553;28;8767;-69
2022/03/19 00:05:46;;;;;;;;;330.75;296.50;8.30;41.10;;;;;;4976678;28;8783;-68
2022/03/19 00:08:16;;;;;;;;;282.25;254.25;8.20;40.10;;;;;;4959399;28;8901;-67
2022/03/19 00:10:43;;;;;;;;;270.00;240.00;8.30;39.90;;;;;;4976516;28;8844;-67
2022/03/19 00:13:10;;;;;;;;;250.75;234.75;8.30;39.50;;;;;;4976441;28;8893;-69
2022/03/19 00:15:37;;;;;;;;;232.00;220.50;8.50;39.20;;;;;;4975999;28;8763;-67
2022/03/19 00:18:03;;;;;;;;;278.75;245.25;8.50;38.60;;;;;;4976541;28;8778;-68
2022/03/19 00:20:30;;;;;;;;;248.50;234.25;8.50;38.90;;;;;;4976294;28;8794;-68
2022/03/19 00:22:56;;;;;;;;;234.50;213.00;8.40;39.00;;;;;;4976428;28;8888;-67
2022/03/19 00:25:22;;;;;;;;;246.00;218.25;8.10;39.40;;;;;;4976179;28;8873;-66
2022/03/19 00:27:47;;;;;;;;;227.50;210.50;8.40;38.80;;;;;;4976132;28;8801;-69
2022/03/19 00:30:14;;;;;;;;;212.50;188.25;8.40;38.70;;;;;;4976075;28;8798;-68
2022/03/19 00:32:40;;;;;;;;;204.75;184.50;8.50;38.80;;;;;;4976127;28;8758;-67
2022/03/19 00:35:07;;;;;;;;;185.75;167.75;8.50;38.20;;;;;;4976361;28;9423;-66
2022/03/19 00:37:49;;;;;;;;;176.25;165.75;8.50;38.00;;;;;;4976107;28;8866;-67
2022/03/19 00:40:17;;;;;;;;;126.25;114.50;8.40;38.30;;;;;;4976188;28;8945;-69
2022/03/19 00:42:43;;;;;;;;;142.50;131.50;7.70;38.80;;;;;;4976145;28;8758;-68
2022/03/19 00:45:11;;;;;;;;;149.50;134.50;6.80;41.50;;;;;;4975956;28;8762;-68
2022/03/19 00:47:37;;;;;;;;;121.25;104.25;7.20;41.10;;;;;;4958793;28;9435;-69
2022/03/19 00:50:07;;;;;;;;;111.75;102.25;7.30;40.70;;;;;;4975907;28;8762;-67
2022/03/19 00:52:34;;;;;;;;;115.00;104.25;7.60;39.80;;;;;;4976052;28;8747;-68
2022/03/19 00:55:00;;;;;;;;;109.50;96.75;7.70;40.00;;;;;;4975848;28;8774;-69
2022/03/19 00:57:26;;;;;;;;;128.75;115.75;7.90;39.40;;;;;;4975702;28;8794;-67
2022/03/19 00:59:52;;;;;;;;;109.50;96.50;7.90;39.50;;;;;;4975826;28;8817;-69
2022/03/19 01:02:18;;;;;;;;;109.00;100.00;8.10;38.80;;;;;;4975672;28;8791;-68
2022/03/19 01:04:44;;;;;;;;;108.00;95.50;8.20;38.50;;;;;;4975894;28;8837;-69
2022/03/19 01:07:09;;;;;;;;;105.50;90.50;8.30;38.70;;;;;;4975840;28;8889;-67
2022/03/19 01:09:36;;;;;;;;;102.75;94.50;8.20;38.40;;;;;;4975607;28;8778;-68
2022/03/19 01:12:02;;;;;;;;;110.50;99.25;7.90;39.20;;;;;;4975563;28;8848;-67
2022/03/19 01:14:27;;;;;;;;;119.25;113.75;7.90;39.30;;;;;;4975775;28;9559;-68
2022/03/19 01:16:53;;;;;;;;;123.75;113.00;8.00;39.30;;;;;;4975478;28;8786;-67
2022/03/19 01:19:52;;;;;;;;;129.25;115.75;8.10;38.90;;;;;;4975531;28;8794;-68
2022/03/19 01:22:05;;;;;;;;;116.00;109.50;8.00;38.60;;;;;;4975319;28;8819;-68
2022/03/19 01:24:31;;;;;;;;;109.25;103.25;8.10;38.90;;;;;;4975481;28;8799;-67
2022/03/19 01:26:56;;;;;;;;;107.75;93.75;8.20;38.70;;;;;;4977500;28;8783;-66
2022/03/19 01:29:22;;;;;;;;;127.25;118.25;8.30;38.60;;;;;;4979733;28;8763;-68
2022/03/19 01:31:48;;;;;;;;;122.50;115.50;7.70;39.40;;;;;;4979363;28;8771;-68
2022/03/19 01:34:14;;;;;;;;;107.25;101.50;7.20;41.00;;;;;;4979366;28;8790;-68
2022/03/19 01:36:39;;;;;;;;;128.50;115.75;7.30;41.00;;;;;;4979513;28;8913;-68
2022/03/19 01:39:05;;;;;;;;;124.50;113.75;6.90;42.10;;;;;;4979112;28;8818;-68
2022/03/19 01:41:31;;;;;;;;;118.25;110.75;6.80;42.70;;;;;;4979052;28;8838;-68
2022/03/19 01:43:56;;;;;;;;;129.75;120.25;7.30;42.10;;;;;;4979158;28;8793;-68
2022/03/19 01:46:22;;;;;;;;;138.00;127.50;7.40;41.40;;;;;;4979019;28;8808;-67
2022/03/19 01:48:48;;;;;;;;;126.50;114.25;7.40;41.30;;;;;;4978944;28;8820;-68
2022/03/19 01:51:14;;;;;;;;;126.00;115.50;7.70;40.70;;;;;;4978989;28;8798;-69
2022/03/19 01:53:39;;;;;;;;;124.50;111.00;7.80;40.10;;;;;;4979272;28;8777;-68
2022/03/19 01:56:07;;;;;;;;;130.25;123.50;7.90;40.00;;;;;;4978966;28;8837;-69
2022/03/19 01:58:34;;;;;;;;;125.25;113.50;7.70;40.10;;;;;;4978965;28;8888;-69
2022/03/19 02:01:00;;;;;;;;;121.75;112.75;7.40;41.70;;;;;;4978845;28;8822;-69
2022/03/19 02:03:28;;;;;;;;;112.75;106.25;6.50;43.40;;;;;;4978804;28;8759;-69
2022/03/19 02:05:56;;;;;;;;;129.00;111.25;6.40;43.90;;;;;;4978662;28;8790;-69
2022/03/19 02:08:22;;;;;;;;;118.50;104.75;6.50;44.00;;;;;;4979038;28;8755;-68
2022/03/19 02:10:48;;;;;;;;;126.25;113.75;6.40;43.70;;;;;;4978637;28;9433;-69
2022/03/19 02:13:14;;;;;;;;;118.00;100.00;6.80;42.80;;;;;;4978649;28;8782;-65
2022/03/19 02:15:40;;;;;;;;;116.25;106.50;7.10;43.40;;;;;;4978653;28;8851;-67
2022/03/19 02:18:05;;;;;;;;;107.50;102.00;7.30;41.90;;;;;;4978785;28;8786;-68
2022/03/19 02:20:35;;;;;;;;;111.50;97.75;6.80;43.00;;;;;;4978387;28;8893;-68
2022/03/19 02:25:48;;;;;;;;;128.50;110.50;6.70;42.70;;;;;;4978516;28;8747;-67
2022/03/19 02:28:15;;;;;;;;;108.75;97.50;6.20;44.60;;;;;;4978658;28;9412;-68
2022/03/19 02:30:42;;;;;;;;;109.25;98.50;6.20;44.80;;;;;;4978566;28;8844;-68
2022/03/19 02:33:08;;;;;;;;;110.25;104.75;6.20;44.70;;;;;;4978301;28;8762;-68
2022/03/19 02:35:34;;;;;;;;;113.50;102.50;6.70;43.80;;;;;;4978482;28;9693;-66
2022/03/19 02:38:00;;;;;;;;;122.00;112.25;6.50;43.30;;;;;;4977168;28;8854;-66
2022/03/19 02:40:26;;;;;;;;;132.00;113.50;6.30;44.40;;;;;;4978097;28;8892;-68
2022/03/19 02:42:54;;;;;;;;;106.50;90.75;6.60;43.50;;;;;;4978091;28;8759;-68
2022/03/19 02:45:21;;;;;;;;;102.75;87.25;6.80;43.10;;;;;;4978321;28;8774;-67
2022/03/19 02:47:59;;;;;;;;;104.00;89.50;6.70;42.90;;;;;;4978063;28;8766;-68
2022/03/19 02:50:31;;;;;;;;;111.50;102.75;6.80;42.70;;;;;;4977994;28;8778;-67
2022/03/19 02:52:58;;;;;;;;;107.00;91.75;7.00;42.30;;;;;;4977923;28;8774;-67
2022/03/19 02:55:24;;;;;;;;;105.75;98.75;7.00;43.30;;;;;;4977930;28;8778;-67
2022/03/19 02:57:50;;;;;;;;;110.50;99.25;6.70;42.60;;;;;;4978017;28;8767;-68
2022/03/19 03:00:16;;;;;;;;;106.50;94.00;6.60;44.80;;;;;;4978011;28;8816;-68
2022/03/19 03:02:42;;;;;;;;;107.25;94.50;6.80;43.10;;;;;;4977713;28;9417;-68
2022/03/19 03:05:11;;;;;;;;;97.75;84.75;6.50;43.40;;;;;;4977829;28;8762;-67
2022/03/19 03:07:37;;;;;;;;;106.50;95.50;6.10;45.00;;;;;;4977931;28;8810;-66
2022/03/19 03:10:03;;;;;;;;;107.25;92.75;6.20;44.30;;;;;;4977635;28;8809;-67
2022/03/19 03:12:29;;;;;;;;;101.75;88.25;5.80;45.40;;;;;;4977751;28;8766;-67
2022/03/19 03:14:55;;;;;;;;;106.25;93.75;6.20;44.80;;;;;;4977780;28;9452;-68
2022/03/19 03:17:22;;;;;;;;;106.75;94.25;6.60;43.50;;;;;;4977539;28;8784;-67
2022/03/19 03:19:47;;;;;;;;;106.50;92.50;6.70;43.40;;;;;;4977592;28;8778;-69
2022/03/19 03:22:13;;;;;;;;;106.00;87.50;7.00;42.70;;;;;;4977604;28;8786;-68
2022/03/19 03:24:39;;;;;;;;;101.75;83.50;7.10;42.30;;;;;;4977444;28;8854;-67
2022/03/19 03:27:05;;;;;;;;;106.25;92.75;7.30;42.10;;;;;;4977351;28;8774;-67
2022/03/19 03:29:31;;;;;;;;;103.75;91.25;7.50;41.40;;;;;;4977305;28;8770;-69
2022/03/19 03:31:56;;;;;;;;;109.00;95.00;7.50;41.00;;;;;;4977137;28;8782;-68
2022/03/19 03:34:22;;;;;;;;;124.50;106.75;7.60;41.00;;;;;;4977210;28;8767;-69
2022/03/19 03:36:48;;;;;;;;;107.00;99.50;7.50;40.90;;;;;;4977355;28;8798;-69
2022/03/19 03:39:14;;;;;;;;;103.75;83.50;7.50;41.00;;;;;;4976966;28;9535;-66
2022/03/19 03:41:39;;;;;;;;;98.75;76.75;7.20;41.50;;;;;;4976850;28;9484;-67
2022/03/19 03:44:05;;;;;;;;;103.00;91.00;6.90;42.40;;;;;;4976994;28;8766;-69
2022/03/19 03:46:31;;;;;;;;;106.50;95.25;6.70;42.60;;;;;;4976977;28;8763;-68
2022/03/19 03:48:57;;;;;;;;;98.75;83.00;6.60;42.80;;;;;;4976782;28;8797;-67
2022/03/19 03:51:23;;;;;;;;;102.50;90.25;5.90;43.90;;;;;;4976070;28;8767;-68
2022/03/19 03:53:49;;;;;;;;;99.75;87.25;5.90;44.70;;;;;;4976794;28;8844;-68
2022/03/19 03:56:15;;;;;;;;;98.00;77.25;6.10;44.30;;;;;;4977035;28;8778;-65
2022/03/19 03:58:43;;;;;;;;;103.75;85.50;6.00;44.30;;;;;;4976719;28;9444;-67
2022/03/19 04:01:09;;;;;;;;;96.75;79.50;6.10;44.40;;;;;;4976659;28;8798;-67
2022/03/19 04:03:35;;;;;;;;;98.25;82.75;6.40;43.40;;;;;;4976701;28;8754;-69
2022/03/19 04:06:01;;;;;;;;;102.25;84.50;6.60;43.00;;;;;;4959395;28;8778;-68
2022/03/19 04:08:27;;;;;;;;;105.25;90.00;6.70;42.90;;;;;;4976598;28;8782;-68
2022/03/19 04:10:53;;;;;;;;;93.50;75.25;6.30;43.60;;;;;;4976777;28;8794;-68
2022/03/19 04:13:19;;;;;;;;;100.50;77.50;6.50;43.30;;;;;;4976579;28;8755;-69
2022/03/19 04:15:44;;;;;;;;;96.25;75.75;6.10;43.90;;;;;;4976462;28;8797;-67
2022/03/19 04:18:13;;;;;;;;;99.00;74.00;6.20;44.40;;;;;;4976392;28;8766;-67
2022/03/19 04:20:39;;;;;;;;;104.75;86.75;6.10;44.20;;;;;;4976527;28;8834;-69
2022/03/19 04:23:05;;;;;;;;;102.75;91.00;6.40;43.70;;;;;;4976294;28;8754;-67
2022/03/19 04:25:30;;;;;;;;;108.75;89.00;5.90;44.60;;;;;;4976504;28;8788;-67
2022/03/19 04:27:57;;;;;;;;;106.75;98.50;6.00;44.60;;;;;;4959045;28;8782;-69
2022/03/19 04:30:26;;;;;;;;;97.75;79.25;6.30;44.40;;;;;;4976438;28;8774;-66
2022/03/19 04:32:58;;;;;;;;;97.00;81.25;6.20;44.10;;;;;;4976092;28;8886;-67
2022/03/19 04:38:12;;;;;;;;;94.25;73.00;5.80;45.20;;;;;;4973545;28;8842;-67
2022/03/19 04:40:39;;;;;;;;;102.00;89.75;5.60;45.30;;;;;;4970639;28;8810;-67
2022/03/19 04:43:06;;;;;;;;;90.75;75.00;5.40;45.60;;;;;;4966012;28;8785;-69
2022/03/19 04:45:32;;;;;;;;;103.00;84.75;5.30;46.40;;;;;;4956888;28;8773;-69
2022/03/19 04:47:57;;;;;;;;;94.00;73.50;5.40;45.80;;;;;;4956625;28;8769;-69
2022/03/19 04:50:24;;;;;;;;;101.00;79.50;5.20;46.50;;;;;;4956575;28;8784;-68
2022/03/19 04:52:51;;;;;;;;;92.00;73.25;5.00;46.50;;;;;;4956802;28;8768;-66
2022/03/19 04:55:17;;;;;;;;;78.75;62.25;5.00;47.20;;;;;;4956698;28;8787;-68
2022/03/19 04:57:43;;;;;;;;;100.00;80.75;4.90;47.60;;;;;;4962971;28;8784;-68
2022/03/19 05:00:11;;;;;;;;;94.75;79.00;5.10;46.60;;;;;;4966373;28;9502;-68
2022/03/19 05:02:38;;;;;;;;;100.50;80.25;5.20;46.80;;;;;;4956230;28;8847;-69
2022/03/19 05:05:04;;;;;;;;;97.50;79.50;5.60;45.90;;;;;;4956617;28;9469;-68
2022/03/19 05:07:35;;;;;;;;;98.00;85.75;6.10;44.80;;;;;;4956712;28;8797;-66
2022/03/19 05:12:48;;;;;;;;;101.25;83.25;6.60;43.50;;;;;;4956398;28;8745;-68
2022/03/19 05:15:15;;;;;;;;;103.25;85.50;6.90;42.90;;;;;;4956327;28;8808;-68
2022/03/19 05:17:42;;;;;;;;;90.50;71.25;7.00;42.70;;;;;;4956481;28;9481;-68
2022/03/19 05:20:09;;;;;;;;;98.50;81.00;7.20;42.30;;;;;;4956248;29;8800;-67
2022/03/19 05:22:37;;;;;;;;;104.50;88.75;7.20;41.60;;;;;;4956173;29;8958;-67
2022/03/19 05:25:04;;;;;;;;;99.00;84.75;7.20;41.70;;;;;;4966076;28;8780;-68
2022/03/19 05:27:30;;;;;;;;;97.50;81.75;7.30;41.50;;;;;;4957449;28;8847;-67
2022/03/19 05:29:55;;;;;;;;;93.75;78.25;7.40;41.30;;;;;;4961021;28;8796;-66
2022/03/19 05:32:22;;;;;;;;;100.25;83.50;7.40;41.30;;;;;;4968172;28;8770;-64
2022/03/19 05:34:48;;;;;;;;;101.75;83.75;7.40;41.00;;;;;;4939145;29;8970;-67
2022/03/19 05:37:15;;;;;;;;;102.50;87.75;7.40;40.80;;;;;;4956240;28;8812;-67
2022/03/19 05:39:41;;;;;;;;;95.75;83.25;7.60;40.80;;;;;;4959660;28;9422;-68
2022/03/19 05:42:08;;;;;;;;;97.00;76.50;7.60;40.60;;;;;;4971304;28;8815;-66
2022/03/19 05:44:34;;;;;;;;;96.50;82.00;7.60;40.40;;;;;;4955879;29;8776;-67
2022/03/19 05:47:00;;;;;;;;;100.00;81.50;7.70;40.50;;;;;;4956023;29;8784;-68
2022/03/19 05:49:28;;;;;;;;;96.25;76.00;7.70;40.10;;;;;;4956257;29;8768;-69
2022/03/19 05:51:55;;;;;;;;;101.00;87.50;7.70;41.40;;;;;;4956030;29;8805;-67
2022/03/19 05:54:21;;;;;;;;;101.00;82.25;7.80;40.40;;;;;;4955973;29;8883;-67
2022/03/19 05:56:46;;;;;;;;;103.25;87.25;7.80;40.00;;;;;;4955984;29;8741;-68
2022/03/19 05:59:12;;;;;;;;;104.00;90.50;7.90;40.10;;;;;;4955855;29;8780;-68
2022/03/19 06:01:41;;;;;;;;;102.00;88.00;7.90;39.90;;;;;;4955760;29;8792;-67
2022/03/19 06:04:08;;;;;;;;;107.25;103.50;7.90;41.00;;;;;;4955774;29;8772;-67
2022/03/19 06:06:34;;;;;;;;;114.00;103.25;8.00;40.00;;;;;;4955845;29;8898;-67
2022/03/19 06:09:00;;;;;;;;;103.25;87.75;8.00;40.20;;;;;;4955762;29;8891;-70
2022/03/19 06:11:26;;;;;;;;;114.75;107.00;8.10;39.70;;;;;;4961029;28;8780;-68
2022/03/19 06:13:52;;;;;;;;;123.75;113.25;8.20;39.70;;;;;;4969190;28;8807;-67
2022/03/19 06:16:18;;;;;;;;;126.25;111.00;8.30;39.90;;;;;;4959368;28;8811;-67
2022/03/19 06:18:46;;;;;;;;;121.25;112.00;8.00;39.60;;;;;;4959230;28;8792;-68
2022/03/19 06:21:12;;;;;;;;;110.00;99.00;7.50;40.20;;;;;;4959377;28;8816;-67
2022/03/19 06:23:38;;;;;;;;;125.50;116.25;6.60;41.50;;;;;;4959783;28;8879;-65
2022/03/19 06:26:04;;;;;;;;;126.25;113.50;6.20;43.90;;;;;;4967451;28;8931;-67
2022/03/19 06:28:30;;;;;;;;;109.50;102.00;6.70;43.00;;;;;;4967909;28;8784;-66
2022/03/19 06:30:56;;;;;;;;;108.75;96.25;5.90;44.00;;;;;;4967675;28;8793;-66
2022/03/19 06:33:22;;;;;;;;;103.75;93.00;6.00;45.10;;;;;;4961394;28;8820;-69
2022/03/19 06:38:32;;;;;;;;;102.50;86.00;6.30;43.60;;;;;;4958866;28;8926;-66
2022/03/19 06:40:59;;;;;;;;;103.50;89.25;6.30;44.00;;;;;;4959050;28;8919;-67
2022/03/19 06:43:25;;;;;;;;;99.50;82.00;6.10;44.60;;;;;;4958793;28;8801;-68
2022/03/19 06:45:51;;;;;;;;;99.25;82.25;5.80;46.60;;;;;;4959056;28;8777;-67
2022/03/19 06:48:17;;;;;;;;;99.50;89.25;6.00;45.80;;;;;;4959003;28;9545;-68
2022/03/19 06:50:43;;;;;;;;;104.25;89.00;5.90;46.50;;;;;;4958954;28;8899;-68
2022/03/19 06:53:08;;;;;;;;;103.00;82.50;6.30;45.40;;;;;;4958597;28;8769;-69
2022/03/19 06:55:34;;;;;;;;;99.50;80.75;6.50;44.80;;;;;;4958620;28;8890;-68
2022/03/19 06:58:00;;;;;;;;;103.75;92.25;6.80;44.60;;;;;;4958536;28;8773;-69
2022/03/19 07:00:26;;;;;;;;;104.25;93.25;6.60;44.60;;;;;;4958330;28;8831;-66
2022/03/19 07:02:54;;;;;;;;;100.00;85.25;6.40;45.70;;;;;;4958430;28;8871;-68
2022/03/19 07:05:24;;;;;;;;;102.50;89.00;6.70;44.90;;;;;;4958695;28;8769;-68
2022/03/19 07:07:51;;;;;;;;;106.25;95.00;6.90;44.10;;;;;;4958554;28;9449;-66
2022/03/19 07:10:19;;;;;;;;;109.25;100.25;6.90;44.30;;;;;;4941378;28;9497;-69
2022/03/19 07:13:03;;;;;;;;;103.25;94.25;7.50;43.50;;;;;;4959224;28;8827;-67
2022/03/19 07:15:30;;;;;;;;;95.75;86.00;7.90;42.70;;;;;;4958278;28;8780;-67
2022/03/19 07:17:56;;;;;;;;;102.75;91.75;8.00;42.20;;;;;;4957998;28;8799;-68
2022/03/19 07:20:23;;;;;;;;;100.50;90.50;8.10;42.00;;;;;;4964578;28;8883;-67
2022/03/19 07:22:52;;;;;;;;;103.25;93.75;8.60;41.10;;;;;;4960959;28;8791;-68
2022/03/19 07:25:20;;;;;;;;;103.00;89.75;9.00;40.20;;;;;;4962825;28;8762;-68
2022/03/19 07:27:47;;;;;;;;;102.25;93.25;9.20;39.40;;;;;;4977249;28;8742;-68
2022/03/19 07:30:13;;;;;;;;;102.00;92.00;9.40;39.10;;;;;;4977501;28;8786;-68
2022/03/19 07:32:39;;;;;;;;;106.75;96.00;9.30;39.10;;;;;;4970122;28;8823;-68
2022/03/19 07:35:06;;;;;;;;;102.75;98.50;9.40;39.10;;;;;;4973777;28;9550;-69
2022/03/19 07:37:33;;;;;;;;;102.50;89.75;9.50;39.40;;;;;;4972109;28;8953;-68
2022/03/19 07:39:59;;;;;;;;;102.75;92.25;9.50;39.60;;;;;;4977315;28;8848;-69
2022/03/19 07:42:26;;;;;;;;;108.50;98.00;9.20;39.60;;;;;;4965183;28;8776;-68
2022/03/19 07:44:52;;;;;;;;;107.75;98.25;9.30;39.70;;;;;;4957891;28;8760;-66
2022/03/19 07:47:18;;;;;;;;;110.75;104.00;9.20;39.70;;;;;;4958028;28;8769;-67
2022/03/19 07:49:43;;;;;;;;;108.75;101.25;9.40;39.60;;;;;;4957455;28;8792;-68
2022/03/19 07:52:10;;;;;;;;;104.75;96.25;9.60;39.70;;;;;;4957494;28;8784;-67
2022/03/19 07:54:36;;;;;;;;;101.75;91.50;9.50;39.80;;;;;;4957642;28;8867;-66
2022/03/19 07:57:06;;;;;;;;;110.50;101.00;9.20;41.40;;;;;;4964322;28;8890;-66
2022/03/19 07:59:35;;;;;;;;;102.25;97.00;9.30;42.00;;;;;;4957495;28;9458;-66
2022/03/19 08:02:01;;;;;;;;;107.75;98.00;9.80;40.50;;;;;;4967777;28;8830;-68
2022/03/19 08:04:27;;;;;;;;;105.50;98.75;9.80;40.50;;;;;;4972390;28;8800;-67
2022/03/19 08:06:54;;;;;;;;;105.50;99.00;10.00;40.50;;;;;;4963784;28;9532;-68
2022/03/19 08:09:21;;;;;;;;;97.50;84.25;10.30;39.70;;;;;;4957116;28;8807;-67
2022/03/19 08:11:47;;;;;;;;;99.75;90.25;10.10;40.30;;;;;;4957396;28;8768;-68
2022/03/19 08:14:14;;;;;;;;;103.25;95.25;10.30;40.20;;;;;;4957086;28;8780;-68
2022/03/19 08:16:44;;;;;;;;;99.75;92.75;10.30;39.60;;;;;;4957029;28;8800;-67
2022/03/19 08:19:13;;;;;;;;;102.50;96.75;10.50;39.10;;;;;;4957089;28;8749;-68
2022/03/19 08:21:44;;;;;;;;;99.25;92.25;10.40;39.10;;;;;;4956917;28;8823;-66
2022/03/19 08:24:11;;;;;;;;;96.00;88.50;9.90;41.10;;;;;;4957288;28;8769;-67
2022/03/19 08:26:37;;;;;;;;;107.75;93.50;9.40;42.40;;;;;;4957166;28;9422;-67
2022/03/19 08:29:04;;;;;;;;;112.50;103.00;9.90;41.50;;;;;;4956941;28;8790;-69
2022/03/19 08:31:31;;;;;;;;;111.25;104.00;10.30;41.30;;;;;;4960612;28;8790;-69
2022/03/19 08:33:57;;;;;;;;;110.00;101.00;10.70;40.00;;;;;;4956769;28;8776;-68
2022/03/19 08:36:24;;;;;;;;;107.75;97.25;10.90;39.50;;;;;;4971392;28;8806;-72
2022/03/19 08:41:34;;;;;;;;;109.25;102.50;10.90;40.30;;;;;;4959176;28;8839;-70
2022/03/19 08:44:01;;;;;;;;;113.50;109.75;10.70;40.20;;;;;;4956543;28;8791;-71
2022/03/19 08:46:27;;;;;;;;;120.75;109.00;10.80;40.30;;;;;;4957760;28;8777;-77
2022/03/19 08:48:53;;;;;;;;;117.50;109.50;10.50;41.40;;;;;;4944235;28;8804;-71
2022/03/19 08:54:03;;;;;;;;;122.50;108.00;11.60;39.60;;;;;;4975690;28;8766;-68
2022/03/19 08:56:30;;;;;;;;;107.50;99.75;11.80;39.50;;;;;;4980824;28;8772;-67
2022/03/19 08:58:56;;;;;;;;;110.25;101.00;11.70;39.40;;;;;;4967625;28;8888;-70
2022/03/19 09:01:22;;;;;;;;;109.75;102.50;12.20;38.20;;;;;;4970777;28;8800;-67
2022/03/19 09:03:48;;;;;;;;;109.75;102.50;12.30;38.40;;;;;;4964093;28;8770;-67
2022/03/19 09:06:14;;;;;;;;;108.50;96.00;12.00;39.60;;;;;;4966365;28;8819;-67
2022/03/19 09:08:44;;;;;;;;;97.50;90.75;11.70;39.20;;;;;;4961174;28;8769;-72
2022/03/19 09:11:10;;;;;;;;;108.00;96.00;11.50;40.60;;;;;;4967265;28;8786;-65
2022/03/19 09:13:36;;;;;;;;;87.50;77.50;11.70;41.00;;;;;;4964170;28;8774;-67
2022/03/19 09:16:06;;;;;;;;;97.25;89.75;11.40;41.60;;;;;;4968263;28;9432;-67
2022/03/19 09:18:33;;;;;;;;;93.00;84.75;11.50;42.20;;;;;;4965188;28;8908;-68
2022/03/19 09:20:59;;;;;;;;;95.50;89.00;11.50;41.60;;;;;;4968331;28;8822;-68
2022/03/19 09:23:25;;;;;;;;;86.50;75.50;12.10;40.80;;;;;;4970716;28;8797;-68
2022/03/19 09:25:51;;;;;;;;;90.00;75.50;12.40;39.90;;;;;;4968223;28;8943;-68
2022/03/19 09:28:17;;;;;;;;;80.50;71.50;12.20;40.60;;;;;;4971362;28;9420;-68
2022/03/19 09:30:43;;;;;;;;;87.25;77.25;11.90;40.30;;;;;;4969302;28;8801;-68
2022/03/19 09:33:08;;;;;;;;;80.25;63.50;11.60;41.20;;;;;;4967997;28;8771;-69
2022/03/19 09:35:35;;;;;;;;;82.50;64.00;11.80;41.50;;;;;;4975191;28;8790;-68
2022/03/19 09:38:01;;;;;;;;;82.50;70.75;11.20;43.20;;;;;;4964718;28;8970;-68
2022/03/19 09:40:27;;;;;;;;;79.50;62.75;11.40;43.70;;;;;;4968000;28;8808;-66
2022/03/19 09:42:57;;;;;;;;;74.25;59.50;11.60;42.10;;;;;;4963297;28;8858;-66
2022/03/19 09:45:24;;;;;;;;;82.50;72.50;12.30;41.00;;;;;;4965234;28;8774;-67
2022/03/19 09:47:51;;;;;;;;;76.25;60.00;12.50;39.50;;;;;;4975317;28;8842;-67
2022/03/19 09:50:17;;;;;;;;;79.75;67.50;12.50;40.00;;;;;;4969884;28;8789;-70
2022/03/19 09:52:44;;;;;;;;;79.75;66.25;12.20;41.10;;;;;;4959992;28;8781;-68
2022/03/19 09:55:17;;;;;;;;;93.25;85.00;12.20;41.00;;;;;;4964176;28;8782;-71
2022/03/19 09:57:43;;;;;;;;;75.25;61.00;12.30;39.50;;;;;;4976391;28;8782;-67
2022/03/19 10:00:10;;;;;;;;;74.00;60.50;13.10;38.60;;;;;;4978527;28;8783;-72
2022/03/19 10:03:10;;;;;;;;;68.00;55.50;13.40;36.60;;;;;;4998562;28;8769;-65
2022/03/19 10:08:43;;;;;;;;;64.50;50.50;13.00;37.30;;;;;;4880004;29;8807;-66
2022/03/19 10:11:11;;;;;;;;;72.75;55.00;12.80;37.90;;;;;;4870986;29;8901;-70
2022/03/19 10:13:44;;;;;;;;;67.00;54.75;13.00;37.70;;;;;;4878592;29;8826;-66
2022/03/19 10:16:11;;;;;;;;;64.75;52.75;12.90;38.90;;;;;;4879508;29;8799;-65
2022/03/19 10:18:37;;;;;;;;;68.25;52.25;12.60;38.20;;;;;;4880032;29;8804;-69
2022/03/19 10:21:13;;;;;;;;;67.75;54.25;13.40;38.40;;;;;;4880820;29;8808;-72
2022/03/19 10:23:39;;;;;;;;;66.00;53.25;13.90;36.90;;;;;;4881285;29;8799;-71
2022/03/19 10:26:06;;;;;;;;;69.75;54.50;14.10;35.20;;;;;;4873848;29;8887;-69
2022/03/19 10:28:36;;;;;;;;;83.25;68.00;14.00;35.30;;;;;;4876874;29;8799;-69
2022/03/19 10:31:02;;;;;;;;;73.00;57.00;13.90;36.20;;;;;;4874481;29;8863;-69
2022/03/19 10:33:33;;;;;;;;;77.75;64.75;14.30;35.30;;;;;;4878908;29;8814;-71
2022/03/19 10:36:07;;;;;;;;;63.50;50.00;13.90;34.30;;;;;;4872092;29;8795;-73
2022/03/19 10:38:42;;;;;;;;;74.25;58.25;14.10;37.30;;;;;;4862408;29;8810;-70
2022/03/19 10:41:08;;;;;;;;;60.25;49.50;15.10;33.30;;;;;;4926480;28;8913;-69
2022/03/19 10:43:35;;;;;;;;;69.50;54.75;15.60;34.20;;;;;;4973872;28;8798;-71
2022/03/19 10:46:03;;;;;;;;;66.25;52.75;15.40;32.40;;;;;;4966809;28;9467;-71
2022/03/19 10:48:29;;;;;;;;;75.25;58.50;16.30;31.10;;;;;;4968565;28;8806;-73
2022/03/19 10:50:55;;;;;;;;;56.75;48.75;16.70;29.90;;;;;;4968980;28;8789;-69
2022/03/19 10:53:23;;;;;;;;;57.00;46.75;16.40;30.40;;;;;;4971522;28;8804;-74
2022/03/19 10:55:50;;;;;;;;;58.00;48.00;16.60;29.90;;;;;;4960285;28;8885;-72
2022/03/19 10:58:16;;;;;;;;;61.50;49.00;16.90;30.40;;;;;;4967486;28;8804;-74
2022/03/19 11:00:44;;;;;;;;;58.50;47.75;16.90;29.30;;;;;;4951576;28;8818;-76
2022/03/19 11:03:23;;;;;;;;;66.00;51.75;17.30;28.80;;;;;;4966998;28;8797;-74
2022/03/19 11:05:52;;;;;;;;;51.25;42.75;18.00;28.40;;;;;;4958280;28;8777;-64
2022/03/19 11:08:22;;;;;;;;;47.75;39.75;17.70;27.90;;;;;;4909128;28;8854;-74
2022/03/19 11:10:49;;;;;;;;;56.50;45.00;17.30;27.10;;;;;;4966917;28;8861;-70
2022/03/19 11:13:21;;;;;;;;;51.00;42.75;17.00;27.60;;;;;;4947941;28;8923;-73
2022/03/19 11:15:50;;;;;;;;;52.25;44.00;16.00;27.60;;;;;;4961875;28;8770;-70
2022/03/19 11:18:22;;;;;;;;;57.50;46.75;15.60;29.70;;;;;;4977328;28;8810;-69
2022/03/19 11:20:49;;;;;;;;;41.75;36.25;16.00;30.00;;;;;;4977659;28;8932;-67
2022/03/19 11:23:21;;;;;;;;;50.25;42.00;16.00;28.40;;;;;;4977449;28;8770;-65
2022/03/19 11:25:53;;;;;;;;;53.25;44.25;15.80;28.00;;;;;;4977462;28;8755;-67
2022/03/19 11:28:19;;;;;;;;;51.75;42.00;15.80;28.30;;;;;;4977278;28;8805;-67
2022/03/19 11:31:09;;;;;;;;;54.75;44.75;15.10;29.20;;;;;;4985763;28;8749;-73
2022/03/19 11:33:37;;;;;;;;;52.50;43.75;15.10;29.10;;;;;;4997012;28;9410;-65
2022/03/19 11:36:10;;;;;;;;;50.50;43.00;15.60;28.30;;;;;;4973090;28;8852;-68
2022/03/19 11:38:54;;;;;;;;;50.25;39.50;15.20;29.00;;;;;;4972942;28;8979;-64
2022/03/19 11:41:24;;;;;;;;;52.00;43.50;17.30;27.10;;;;;;4957836;28;8823;-66
2022/03/19 11:44:11;;;;;;;;;48.00;40.50;21.50;24.00;;;;;;4957766;28;8764;-68
2022/03/19 11:47:03;;;;;;;;;49.33;42.33;24.70;21.40;;;;;;4958427;28;8880;-66
2022/03/19 11:49:53;;;;;;;;;47.33;40.00;25.50;19.40;;;;;;4977253;28;8857;-64
2022/03/19 11:52:25;;;;;;;;;52.33;43.00;23.30;19.80;;;;;;4976916;28;8781;-70
2022/03/19 11:55:13;;;;;;;;;42.67;37.67;21.50;20.70;;;;;;4976765;28;8778;-66
2022/03/19 11:57:56;;;;;;;;;41.67;34.00;18.00;23.80;;;;;;4976816;28;8775;-66
2022/03/19 12:00:28;;;;;;;;;53.50;45.00;17.40;24.30;;;;;;4974658;28;8829;-66
2022/03/19 12:03:16;;;;;;;;;49.50;40.00;16.60;25.40;;;;;;4961692;28;8831;-66
2022/03/19 12:05:48;;;;;;;;;40.25;35.25;16.50;26.50;;;;;;4975402;28;8794;-66
2022/03/19 12:08:18;;;;;;;;;49.75;41.75;15.80;26.40;;;;;;4976656;28;8814;-66
2022/03/19 12:11:17;;;;;;;;;47.25;38.00;16.20;26.50;;;;;;4960531;28;9533;-67
2022/03/19 12:13:47;;;;;;;;;49.00;40.50;16.20;26.20;;;;;;4898086;29;8806;-66
2022/03/19 12:16:42;;;;;;;;;55.50;45.00;15.40;26.90;;;;;;4897744;29;8801;-65
2022/03/19 12:19:09;;;;;;;;;43.00;38.75;15.60;27.10;;;;;;4898077;29;8809;-67
2022/03/19 12:21:37;;;;;;;;;43.50;36.50;15.70;26.50;;;;;;4897787;29;8893;-64
2022/03/19 12:24:06;;;;;;;;;46.50;39.00;15.60;25.80;;;;;;4901917;29;8799;-65
2022/03/19 12:26:49;;;;;;;;;46.50;39.00;15.30;26.20;;;;;;4912618;29;8882;-65
2022/03/19 12:29:17;;;;;;;;;50.00;42.00;15.50;26.80;;;;;;4903926;29;8852;-66
2022/03/19 12:31:46;;;;;;;;;51.75;42.25;15.20;27.10;;;;;;4915927;29;8922;-66
2022/03/19 12:34:26;;;;;;;;;54.00;46.00;15.60;26.40;;;;;;4910709;29;8815;-66
2022/03/19 12:37:01;;;;;;;;;50.00;42.75;17.20;26.00;;;;;;4897677;29;9512;-63
2022/03/19 12:39:27;;;;;;;;;39.00;31.75;21.10;22.90;;;;;;4879135;29;8820;-64
2022/03/19 12:41:54;;;;;;;;;42.00;36.67;25.10;20.50;;;;;;4878731;29;9519;-64
2022/03/19 12:44:29;;;;;;;;;44.00;37.67;27.70;16.90;;;;;;4878938;29;8773;-64
2022/03/19 12:47:04;;;;;;;;;49.67;41.67;31.00;15.80;;;;;;4878774;29;8809;-65
2022/03/19 12:49:31;;;;;;;;;37.67;33.33;29.60;14.90;;;;;;4902376;29;8885;-65
2022/03/19 12:52:04;;;;;;;;;41.67;35.00;28.30;15.30;;;;;;4918276;29;8779;-65
2022/03/19 12:54:31;;;;;;;;;41.33;36.00;29.50;14.80;;;;;;4918387;29;8782;-64
2022/03/19 12:57:11;;;;;;;;;33.00;31.67;30.20;14.90;;;;;;4918230;29;9574;-65
2022/03/19 12:59:45;;;;;;;;;42.33;37.33;30.00;14.70;;;;;;4918218;29;8771;-64